sensor_id;sensor_type;location;lat;lon;timestamp;P1;durP1;ratioP1;P2;durP2;ratioP2
76023;SDS011;64719;52.124;6.226;2023-03-30T00:00:06;8.07;;;4.15;;
76023;SDS011;64719;52.124;6.226;2023-03-30T00:02:42;7.25;;;3.60;;
76023;SDS011;64719;52.124;6.226;2023-03-30T00:05:10;8.07;;;4.28;;
76023;SDS011;64719;52.124;6.226;2023-03-30T00:07:37;6.10;;;3.40;;
76023;SDS011;64719;52.124;6.226;2023-03-30T00:10:06;7.80;;;3.50;;
76023;SDS011;64719;52.124;6.226;2023-03-30T00:12:35;7.22;;;3.40;;
76023;SDS011;64719;52.124;6.226;2023-03-30T00:15:02;7.55;;;3.42;;
76023;SDS011;64719;52.124;6.226;2023-03-30T00:17:29;10.23;;;3.97;;
76023;SDS011;64719;52.124;6.226;2023-03-30T00:19:57;10.40;;;3.90;;
76023;SDS011;64719;52.124;6.226;2023-03-30T00:22:26;9.85;;;4.15;;
76023;SDS011;64719;52.124;6.226;2023-03-30T00:24:53;8.65;;;3.88;;
76023;SDS011;64719;52.124;6.226;2023-03-30T00:27:21;6.50;;;3.78;;
76023;SDS011;64719;52.124;6.226;2023-03-30T00:29:47;6.15;;;3.38;;
76023;SDS011;64719;52.124;6.226;2023-03-30T00:32:14;5.22;;;3.30;;
76023;SDS011;64719;52.124;6.226;2023-03-30T00:34:41;7.18;;;4.25;;
76023;SDS011;64719;52.124;6.226;2023-03-30T00:37:08;9.30;;;3.70;;
76023;SDS011;64719;52.124;6.226;2023-03-30T00:39:35;6.60;;;3.40;;
76023;SDS011;64719;52.124;6.226;2023-03-30T00:42:03;6.80;;;3.00;;
76023;SDS011;64719;52.124;6.226;2023-03-30T00:47:42;7.82;;;3.35;;
76023;SDS011;64719;52.124;6.226;2023-03-30T00:50:11;5.85;;;3.40;;
76023;SDS011;64719;52.124;6.226;2023-03-30T00:52:39;6.13;;;3.03;;
76023;SDS011;64719;52.124;6.226;2023-03-30T00:55:08;8.40;;;3.60;;
76023;SDS011;64719;52.124;6.226;2023-03-30T00:57:36;4.93;;;3.05;;
76023;SDS011;64719;52.124;6.226;2023-03-30T01:00:06;6.47;;;3.17;;
76023;SDS011;64719;52.124;6.226;2023-03-30T01:02:36;6.65;;;3.25;;
76023;SDS011;64719;52.124;6.226;2023-03-30T01:05:08;7.70;;;4.13;;
76023;SDS011;64719;52.124;6.226;2023-03-30T01:07:36;4.80;;;3.38;;
76023;SDS011;64719;52.124;6.226;2023-03-30T01:12:32;7.75;;;3.60;;
76023;SDS011;64719;52.124;6.226;2023-03-30T01:14:59;5.75;;;3.15;;
76023;SDS011;64719;52.124;6.226;2023-03-30T01:17:28;8.50;;;3.38;;
76023;SDS011;64719;52.124;6.226;2023-03-30T01:23:20;6.05;;;3.10;;
76023;SDS011;64719;52.124;6.226;2023-03-30T01:26:20;6.65;;;3.25;;
76023;SDS011;64719;52.124;6.226;2023-03-30T01:28:59;4.60;;;3.03;;
76023;SDS011;64719;52.124;6.226;2023-03-30T01:31:39;8.32;;;3.60;;
76023;SDS011;64719;52.124;6.226;2023-03-30T01:34:22;6.30;;;3.50;;
76023;SDS011;64719;52.124;6.226;2023-03-30T01:40:10;7.15;;;3.08;;
76023;SDS011;64719;52.124;6.226;2023-03-30T01:42:41;6.15;;;3.35;;
76023;SDS011;64719;52.124;6.226;2023-03-30T01:45:18;6.45;;;3.10;;
76023;SDS011;64719;52.124;6.226;2023-03-30T01:47:53;5.35;;;2.58;;
76023;SDS011;64719;52.124;6.226;2023-03-30T01:50:24;6.00;;;3.17;;
76023;SDS011;64719;52.124;6.226;2023-03-30T01:52:54;6.03;;;2.70;;
76023;SDS011;64719;52.124;6.226;2023-03-30T01:55:27;5.60;;;2.42;;
76023;SDS011;64719;52.124;6.226;2023-03-30T01:57:59;5.82;;;2.70;;
76023;SDS011;64719;52.124;6.226;2023-03-30T02:00:28;4.55;;;2.53;;
76023;SDS011;64719;52.124;6.226;2023-03-30T02:02:56;5.40;;;2.78;;
76023;SDS011;64719;52.124;6.226;2023-03-30T02:05:26;6.63;;;2.50;;
76023;SDS011;64719;52.124;6.226;2023-03-30T02:07:56;5.40;;;2.63;;
76023;SDS011;64719;52.124;6.226;2023-03-30T02:10:30;7.65;;;2.78;;
76023;SDS011;64719;52.124;6.226;2023-03-30T02:12:59;5.50;;;2.25;;
76023;SDS011;64719;52.124;6.226;2023-03-30T02:15:31;3.47;;;2.40;;
76023;SDS011;64719;52.124;6.226;2023-03-30T02:18:00;3.53;;;2.30;;
76023;SDS011;64719;52.124;6.226;2023-03-30T02:20:28;5.45;;;2.45;;
76023;SDS011;64719;52.124;6.226;2023-03-30T02:25:23;5.88;;;2.72;;
76023;SDS011;64719;52.124;6.226;2023-03-30T02:27:51;6.25;;;2.65;;
76023;SDS011;64719;52.124;6.226;2023-03-30T02:30:18;4.93;;;2.63;;
76023;SDS011;64719;52.124;6.226;2023-03-30T02:32:46;4.03;;;3.03;;
76023;SDS011;64719;52.124;6.226;2023-03-30T02:38:33;4.60;;;2.63;;
76023;SDS011;64719;52.124;6.226;2023-03-30T02:41:16;4.85;;;2.38;;
76023;SDS011;64719;52.124;6.226;2023-03-30T02:43:57;6.43;;;2.70;;
76023;SDS011;64719;52.124;6.226;2023-03-30T02:46:37;8.88;;;3.33;;
76023;SDS011;64719;52.124;6.226;2023-03-30T02:49:16;4.70;;;2.90;;
76023;SDS011;64719;52.124;6.226;2023-03-30T02:51:52;5.65;;;2.70;;
76023;SDS011;64719;52.124;6.226;2023-03-30T02:54:27;4.78;;;3.13;;
76023;SDS011;64719;52.124;6.226;2023-03-30T02:57:00;3.88;;;2.55;;
76023;SDS011;64719;52.124;6.226;2023-03-30T02:59:34;4.68;;;2.80;;
76023;SDS011;64719;52.124;6.226;2023-03-30T03:02:08;5.43;;;2.75;;
76023;SDS011;64719;52.124;6.226;2023-03-30T03:04:39;7.75;;;4.07;;
76023;SDS011;64719;52.124;6.226;2023-03-30T03:07:08;6.18;;;2.92;;
76023;SDS011;64719;52.124;6.226;2023-03-30T03:09:35;5.53;;;3.00;;
76023;SDS011;64719;52.124;6.226;2023-03-30T03:12:02;4.35;;;2.35;;
76023;SDS011;64719;52.124;6.226;2023-03-30T03:14:29;5.10;;;2.40;;
76023;SDS011;64719;52.124;6.226;2023-03-30T03:16:57;4.38;;;2.35;;
76023;SDS011;64719;52.124;6.226;2023-03-30T03:19:23;7.53;;;2.60;;
76023;SDS011;64719;52.124;6.226;2023-03-30T03:21:50;5.82;;;2.65;;
76023;SDS011;64719;52.124;6.226;2023-03-30T03:24:16;4.15;;;2.50;;
76023;SDS011;64719;52.124;6.226;2023-03-30T03:26:43;4.47;;;2.40;;
76023;SDS011;64719;52.124;6.226;2023-03-30T03:29:10;4.32;;;2.33;;
76023;SDS011;64719;52.124;6.226;2023-03-30T03:31:36;5.53;;;2.88;;
76023;SDS011;64719;52.124;6.226;2023-03-30T03:34:04;5.80;;;2.63;;
76023;SDS011;64719;52.124;6.226;2023-03-30T03:36:31;4.55;;;2.40;;
76023;SDS011;64719;52.124;6.226;2023-03-30T03:38:57;5.80;;;2.45;;
76023;SDS011;64719;52.124;6.226;2023-03-30T03:41:24;6.65;;;2.15;;
76023;SDS011;64719;52.124;6.226;2023-03-30T03:43:51;4.13;;;2.17;;
76023;SDS011;64719;52.124;6.226;2023-03-30T03:46:17;4.38;;;2.45;;
76023;SDS011;64719;52.124;6.226;2023-03-30T03:48:44;5.60;;;2.00;;
76023;SDS011;64719;52.124;6.226;2023-03-30T03:51:12;3.55;;;2.10;;
76023;SDS011;64719;52.124;6.226;2023-03-30T03:53:39;8.65;;;2.42;;
76023;SDS011;64719;52.124;6.226;2023-03-30T03:56:06;5.03;;;1.83;;
76023;SDS011;64719;52.124;6.226;2023-03-30T03:58:33;4.50;;;2.30;;
76023;SDS011;64719;52.124;6.226;2023-03-30T04:01:00;5.43;;;2.10;;
76023;SDS011;64719;52.124;6.226;2023-03-30T04:03:27;7.10;;;2.47;;
76023;SDS011;64719;52.124;6.226;2023-03-30T04:05:56;4.57;;;3.17;;
76023;SDS011;64719;52.124;6.226;2023-03-30T04:08:26;5.13;;;2.75;;
76023;SDS011;64719;52.124;6.226;2023-03-30T04:10:53;6.13;;;2.25;;
76023;SDS011;64719;52.124;6.226;2023-03-30T04:13:20;5.80;;;2.20;;
76023;SDS011;64719;52.124;6.226;2023-03-30T04:15:46;4.00;;;2.22;;
76023;SDS011;64719;52.124;6.226;2023-03-30T04:18:13;6.43;;;2.38;;
76023;SDS011;64719;52.124;6.226;2023-03-30T04:20:39;5.72;;;2.67;;
76023;SDS011;64719;52.124;6.226;2023-03-30T04:23:06;7.07;;;2.38;;
76023;SDS011;64719;52.124;6.226;2023-03-30T04:25:35;6.55;;;2.85;;
76023;SDS011;64719;52.124;6.226;2023-03-30T04:28:03;3.95;;;2.28;;
76023;SDS011;64719;52.124;6.226;2023-03-30T04:30:30;6.85;;;2.28;;
76023;SDS011;64719;52.124;6.226;2023-03-30T04:32:57;4.80;;;2.10;;
76023;SDS011;64719;52.124;6.226;2023-03-30T04:35:29;3.45;;;1.80;;
76023;SDS011;64719;52.124;6.226;2023-03-30T04:37:56;4.88;;;2.08;;
76023;SDS011;64719;52.124;6.226;2023-03-30T04:40:24;4.72;;;2.10;;
76023;SDS011;64719;52.124;6.226;2023-03-30T04:42:52;6.68;;;2.20;;
76023;SDS011;64719;52.124;6.226;2023-03-30T04:45:18;5.07;;;1.95;;
76023;SDS011;64719;52.124;6.226;2023-03-30T04:47:45;6.47;;;1.90;;
76023;SDS011;64719;52.124;6.226;2023-03-30T04:50:12;4.22;;;1.77;;
76023;SDS011;64719;52.124;6.226;2023-03-30T04:52:39;5.00;;;1.80;;
76023;SDS011;64719;52.124;6.226;2023-03-30T04:55:06;3.25;;;1.95;;
76023;SDS011;64719;52.124;6.226;2023-03-30T04:57:33;3.97;;;1.60;;
76023;SDS011;64719;52.124;6.226;2023-03-30T05:00:02;3.13;;;1.67;;
76023;SDS011;64719;52.124;6.226;2023-03-30T05:02:31;2.63;;;1.27;;
76023;SDS011;64719;52.124;6.226;2023-03-30T05:04:58;2.72;;;1.40;;
76023;SDS011;64719;52.124;6.226;2023-03-30T05:07:24;4.53;;;1.70;;
76023;SDS011;64719;52.124;6.226;2023-03-30T05:09:51;4.85;;;1.70;;
76023;SDS011;64719;52.124;6.226;2023-03-30T05:12:17;4.57;;;1.90;;
76023;SDS011;64719;52.124;6.226;2023-03-30T05:14:44;3.72;;;1.50;;
76023;SDS011;64719;52.124;6.226;2023-03-30T05:17:12;7.35;;;1.90;;
76023;SDS011;64719;52.124;6.226;2023-03-30T05:19:38;3.28;;;1.80;;
76023;SDS011;64719;52.124;6.226;2023-03-30T05:22:05;4.22;;;1.50;;
76023;SDS011;64719;52.124;6.226;2023-03-30T05:24:31;4.20;;;1.55;;
76023;SDS011;64719;52.124;6.226;2023-03-30T05:26:58;5.60;;;1.90;;
76023;SDS011;64719;52.124;6.226;2023-03-30T05:29:26;5.90;;;2.15;;
76023;SDS011;64719;52.124;6.226;2023-03-30T05:31:52;8.05;;;2.47;;
76023;SDS011;64719;52.124;6.226;2023-03-30T05:34:20;6.85;;;2.28;;
76023;SDS011;64719;52.124;6.226;2023-03-30T05:36:47;4.25;;;2.40;;
76023;SDS011;64719;52.124;6.226;2023-03-30T05:39:14;7.07;;;3.10;;
76023;SDS011;64719;52.124;6.226;2023-03-30T05:41:40;5.80;;;2.30;;
76023;SDS011;64719;52.124;6.226;2023-03-30T05:44:07;8.27;;;2.50;;
76023;SDS011;64719;52.124;6.226;2023-03-30T05:46:33;6.38;;;2.22;;
76023;SDS011;64719;52.124;6.226;2023-03-30T05:49:00;7.00;;;2.47;;
76023;SDS011;64719;52.124;6.226;2023-03-30T05:51:28;4.38;;;2.60;;
76023;SDS011;64719;52.124;6.226;2023-03-30T05:53:55;8.05;;;2.92;;
76023;SDS011;64719;52.124;6.226;2023-03-30T05:56:21;4.68;;;2.70;;
76023;SDS011;64719;52.124;6.226;2023-03-30T05:58:49;5.75;;;2.90;;
76023;SDS011;64719;52.124;6.226;2023-03-30T06:01:16;8.10;;;3.28;;
76023;SDS011;64719;52.124;6.226;2023-03-30T06:03:44;6.68;;;3.40;;
76023;SDS011;64719;52.124;6.226;2023-03-30T06:06:11;8.05;;;3.90;;
76023;SDS011;64719;52.124;6.226;2023-03-30T06:08:39;8.35;;;3.92;;
76023;SDS011;64719;52.124;6.226;2023-03-30T06:11:06;7.60;;;3.78;;
76023;SDS011;64719;52.124;6.226;2023-03-30T06:13:33;6.28;;;3.35;;
76023;SDS011;64719;52.124;6.226;2023-03-30T06:16:00;6.57;;;3.33;;
76023;SDS011;64719;52.124;6.226;2023-03-30T06:18:26;6.38;;;3.10;;
76023;SDS011;64719;52.124;6.226;2023-03-30T06:20:53;8.07;;;2.97;;
76023;SDS011;64719;52.124;6.226;2023-03-30T06:23:19;7.43;;;2.88;;
76023;SDS011;64719;52.124;6.226;2023-03-30T06:25:48;7.22;;;3.13;;
76023;SDS011;64719;52.124;6.226;2023-03-30T06:28:17;6.90;;;3.42;;
76023;SDS011;64719;52.124;6.226;2023-03-30T06:30:44;6.63;;;3.47;;
76023;SDS011;64719;52.124;6.226;2023-03-30T06:33:13;6.35;;;3.17;;
76023;SDS011;64719;52.124;6.226;2023-03-30T06:35:42;6.72;;;3.50;;
76023;SDS011;64719;52.124;6.226;2023-03-30T06:38:10;8.05;;;3.17;;
76023;SDS011;64719;52.124;6.226;2023-03-30T06:40:37;9.07;;;3.33;;
76023;SDS011;64719;52.124;6.226;2023-03-30T06:43:05;6.82;;;3.33;;
76023;SDS011;64719;52.124;6.226;2023-03-30T06:45:31;9.45;;;4.05;;
76023;SDS011;64719;52.124;6.226;2023-03-30T06:47:58;10.43;;;4.13;;
76023;SDS011;64719;52.124;6.226;2023-03-30T06:50:25;9.93;;;3.75;;
76023;SDS011;64719;52.124;6.226;2023-03-30T06:52:51;8.27;;;4.20;;
76023;SDS011;64719;52.124;6.226;2023-03-30T06:55:18;8.50;;;3.75;;
76023;SDS011;64719;52.124;6.226;2023-03-30T06:57:45;5.78;;;3.45;;
76023;SDS011;64719;52.124;6.226;2023-03-30T07:00:13;9.02;;;4.32;;
76023;SDS011;64719;52.124;6.226;2023-03-30T07:02:41;5.78;;;3.38;;
76023;SDS011;64719;52.124;6.226;2023-03-30T07:05:08;9.45;;;3.13;;
76023;SDS011;64719;52.124;6.226;2023-03-30T07:07:36;9.38;;;3.45;;
76023;SDS011;64719;52.124;6.226;2023-03-30T07:10:03;6.88;;;2.88;;
76023;SDS011;64719;52.124;6.226;2023-03-30T07:12:34;11.02;;;3.15;;
76023;SDS011;64719;52.124;6.226;2023-03-30T07:15:00;11.18;;;2.65;;
76023;SDS011;64719;52.124;6.226;2023-03-30T07:17:28;11.93;;;2.58;;
76023;SDS011;64719;52.124;6.226;2023-03-30T07:19:55;5.95;;;2.30;;
76023;SDS011;64719;52.124;6.226;2023-03-30T07:22:22;8.30;;;2.88;;
76023;SDS011;64719;52.124;6.226;2023-03-30T07:24:48;8.95;;;2.92;;
76023;SDS011;64719;52.124;6.226;2023-03-30T07:27:15;10.15;;;2.22;;
76023;SDS011;64719;52.124;6.226;2023-03-30T07:29:41;5.95;;;2.22;;
76023;SDS011;64719;52.124;6.226;2023-03-30T07:32:08;9.57;;;2.42;;
76023;SDS011;64719;52.124;6.226;2023-03-30T07:34:35;8.95;;;2.05;;
76023;SDS011;64719;52.124;6.226;2023-03-30T07:37:02;6.25;;;2.05;;
76023;SDS011;64719;52.124;6.226;2023-03-30T07:39:30;6.72;;;2.10;;
76023;SDS011;64719;52.124;6.226;2023-03-30T07:41:56;8.68;;;2.53;;
76023;SDS011;64719;52.124;6.226;2023-03-30T07:44:23;8.07;;;2.38;;
76023;SDS011;64719;52.124;6.226;2023-03-30T07:46:53;9.43;;;2.95;;
76023;SDS011;64719;52.124;6.226;2023-03-30T07:49:19;7.13;;;2.10;;
76023;SDS011;64719;52.124;6.226;2023-03-30T07:51:48;6.55;;;2.10;;
76023;SDS011;64719;52.124;6.226;2023-03-30T07:54:15;5.90;;;2.10;;
76023;SDS011;64719;52.124;6.226;2023-03-30T07:56:41;6.57;;;1.92;;
76023;SDS011;64719;52.124;6.226;2023-03-30T07:59:08;6.70;;;1.98;;
76023;SDS011;64719;52.124;6.226;2023-03-30T08:04:03;5.97;;;2.85;;
76023;SDS011;64719;52.124;6.226;2023-03-30T08:06:30;10.18;;;2.28;;
76023;SDS011;64719;52.124;6.226;2023-03-30T08:08:58;7.57;;;2.47;;
76023;SDS011;64719;52.124;6.226;2023-03-30T08:11:25;8.25;;;2.05;;
76023;SDS011;64719;52.124;6.226;2023-03-30T08:13:51;8.50;;;2.60;;
76023;SDS011;64719;52.124;6.226;2023-03-30T08:16:18;9.52;;;2.28;;
76023;SDS011;64719;52.124;6.226;2023-03-30T08:18:45;7.97;;;2.22;;
76023;SDS011;64719;52.124;6.226;2023-03-30T08:21:12;8.23;;;2.10;;
76023;SDS011;64719;52.124;6.226;2023-03-30T08:23:38;10.35;;;2.50;;
76023;SDS011;64719;52.124;6.226;2023-03-30T08:26:06;5.72;;;1.80;;
76023;SDS011;64719;52.124;6.226;2023-03-30T08:28:33;8.25;;;2.35;;
76023;SDS011;64719;52.124;6.226;2023-03-30T08:31:03;13.05;;;2.95;;
76023;SDS011;64719;52.124;6.226;2023-03-30T08:33:31;10.40;;;2.10;;
76023;SDS011;64719;52.124;6.226;2023-03-30T08:35:57;10.73;;;2.17;;
76023;SDS011;64719;52.124;6.226;2023-03-30T08:38:24;7.05;;;2.05;;
76023;SDS011;64719;52.124;6.226;2023-03-30T08:40:51;11.68;;;2.33;;
76023;SDS011;64719;52.124;6.226;2023-03-30T08:46:13;8.48;;;2.30;;
76023;SDS011;64719;52.124;6.226;2023-03-30T08:48:42;14.40;;;2.95;;
76023;SDS011;64719;52.124;6.226;2023-03-30T08:51:11;9.75;;;2.00;;
76023;SDS011;64719;52.124;6.226;2023-03-30T08:53:46;13.40;;;1.95;;
76023;SDS011;64719;52.124;6.226;2023-03-30T08:56:17;8.88;;;1.92;;
76023;SDS011;64719;52.124;6.226;2023-03-30T08:58:49;9.85;;;2.22;;
76023;SDS011;64719;52.124;6.226;2023-03-30T09:01:24;7.55;;;1.95;;
76023;SDS011;64719;52.124;6.226;2023-03-30T09:03:58;7.95;;;2.03;;
76023;SDS011;64719;52.124;6.226;2023-03-30T09:06:33;10.32;;;2.33;;
76023;SDS011;64719;52.124;6.226;2023-03-30T09:09:11;7.80;;;2.03;;
76023;SDS011;64719;52.124;6.226;2023-03-30T09:11:40;8.65;;;2.28;;
76023;SDS011;64719;52.124;6.226;2023-03-30T09:14:11;8.13;;;2.22;;
76023;SDS011;64719;52.124;6.226;2023-03-30T09:16:45;10.32;;;2.05;;
76023;SDS011;64719;52.124;6.226;2023-03-30T09:19:18;8.95;;;1.92;;
76023;SDS011;64719;52.124;6.226;2023-03-30T09:21:49;9.10;;;2.63;;
76023;SDS011;64719;52.124;6.226;2023-03-30T09:24:21;10.02;;;2.33;;
76023;SDS011;64719;52.124;6.226;2023-03-30T09:26:50;8.65;;;2.03;;
76023;SDS011;64719;52.124;6.226;2023-03-30T09:29:25;8.98;;;2.28;;
76023;SDS011;64719;52.124;6.226;2023-03-30T09:31:58;8.32;;;2.88;;
76023;SDS011;64719;52.124;6.226;2023-03-30T09:34:31;12.55;;;2.30;;
76023;SDS011;64719;52.124;6.226;2023-03-30T09:37:05;9.38;;;2.38;;
76023;SDS011;64719;52.124;6.226;2023-03-30T09:39:34;5.93;;;1.90;;
76023;SDS011;64719;52.124;6.226;2023-03-30T09:42:07;8.60;;;1.90;;
76023;SDS011;64719;52.124;6.226;2023-03-30T09:44:43;8.40;;;2.03;;
76023;SDS011;64719;52.124;6.226;2023-03-30T09:47:18;7.03;;;2.30;;
76023;SDS011;64719;52.124;6.226;2023-03-30T09:49:53;7.63;;;2.00;;
76023;SDS011;64719;52.124;6.226;2023-03-30T09:52:22;9.15;;;2.38;;
76023;SDS011;64719;52.124;6.226;2023-03-30T09:54:51;7.82;;;2.25;;
76023;SDS011;64719;52.124;6.226;2023-03-30T09:57:24;9.05;;;2.00;;
76023;SDS011;64719;52.124;6.226;2023-03-30T09:59:54;8.68;;;2.10;;
76023;SDS011;64719;52.124;6.226;2023-03-30T10:02:23;8.95;;;2.65;;
76023;SDS011;64719;52.124;6.226;2023-03-30T10:04:56;7.53;;;2.10;;
76023;SDS011;64719;52.124;6.226;2023-03-30T10:07:28;10.00;;;2.45;;
76023;SDS011;64719;52.124;6.226;2023-03-30T10:09:57;11.05;;;2.38;;
76023;SDS011;64719;52.124;6.226;2023-03-30T10:12:26;11.68;;;2.40;;
76023;SDS011;64719;52.124;6.226;2023-03-30T10:14:56;13.52;;;2.92;;
76023;SDS011;64719;52.124;6.226;2023-03-30T10:17:26;5.50;;;1.90;;
76023;SDS011;64719;52.124;6.226;2023-03-30T10:20:13;10.25;;;2.40;;
76023;SDS011;64719;52.124;6.226;2023-03-30T10:22:48;14.20;;;2.63;;
76023;SDS011;64719;52.124;6.226;2023-03-30T10:25:17;8.32;;;2.58;;
76023;SDS011;64719;52.124;6.226;2023-03-30T10:27:48;9.55;;;2.65;;
76023;SDS011;64719;52.124;6.226;2023-03-30T10:30:19;7.82;;;2.35;;
76023;SDS011;64719;52.124;6.226;2023-03-30T10:32:48;8.13;;;1.98;;
76023;SDS011;64719;52.124;6.226;2023-03-30T10:35:17;9.60;;;2.22;;
76023;SDS011;64719;52.124;6.226;2023-03-30T10:37:46;11.25;;;2.72;;
76023;SDS011;64719;52.124;6.226;2023-03-30T10:40:17;10.52;;;2.58;;
76023;SDS011;64719;52.124;6.226;2023-03-30T10:42:46;10.73;;;2.28;;
76023;SDS011;64719;52.124;6.226;2023-03-30T10:45:21;12.73;;;2.55;;
76023;SDS011;64719;52.124;6.226;2023-03-30T10:47:56;10.10;;;3.08;;
76023;SDS011;64719;52.124;6.226;2023-03-30T10:50:32;13.77;;;3.20;;
76023;SDS011;64719;52.124;6.226;2023-03-30T10:55:41;12.07;;;2.28;;
76023;SDS011;64719;52.124;6.226;2023-03-30T10:58:18;10.63;;;2.00;;
76023;SDS011;64719;52.124;6.226;2023-03-30T11:00:59;11.70;;;2.17;;
76023;SDS011;64719;52.124;6.226;2023-03-30T11:03:35;8.40;;;1.90;;
76023;SDS011;64719;52.124;6.226;2023-03-30T11:06:05;9.75;;;2.53;;
76023;SDS011;64719;52.124;6.226;2023-03-30T11:08:38;7.80;;;2.58;;
76023;SDS011;64719;52.124;6.226;2023-03-30T11:11:08;10.25;;;2.63;;
76023;SDS011;64719;52.124;6.226;2023-03-30T11:13:43;6.85;;;2.30;;
76023;SDS011;64719;52.124;6.226;2023-03-30T11:16:17;11.63;;;2.55;;
76023;SDS011;64719;52.124;6.226;2023-03-30T11:18:47;9.50;;;2.22;;
76023;SDS011;64719;52.124;6.226;2023-03-30T11:21:20;11.45;;;2.40;;
76023;SDS011;64719;52.124;6.226;2023-03-30T11:23:53;12.15;;;2.53;;
76023;SDS011;64719;52.124;6.226;2023-03-30T11:28:52;10.02;;;2.42;;
76023;SDS011;64719;52.124;6.226;2023-03-30T11:31:29;12.27;;;2.63;;
76023;SDS011;64719;52.124;6.226;2023-03-30T11:34:15;12.30;;;2.97;;
76023;SDS011;64719;52.124;6.226;2023-03-30T11:36:50;10.10;;;2.67;;
76023;SDS011;64719;52.124;6.226;2023-03-30T11:39:23;12.55;;;2.30;;
76023;SDS011;64719;52.124;6.226;2023-03-30T11:41:56;10.90;;;2.88;;
76023;SDS011;64719;52.124;6.226;2023-03-30T11:44:27;10.95;;;2.70;;
76023;SDS011;64719;52.124;6.226;2023-03-30T11:46:56;12.05;;;2.22;;
76023;SDS011;64719;52.124;6.226;2023-03-30T11:49:34;11.65;;;2.70;;
76023;SDS011;64719;52.124;6.226;2023-03-30T11:52:09;15.88;;;3.10;;
76023;SDS011;64719;52.124;6.226;2023-03-30T11:54:53;13.48;;;3.10;;
76023;SDS011;64719;52.124;6.226;2023-03-30T11:57:31;13.60;;;3.00;;
76023;SDS011;64719;52.124;6.226;2023-03-30T12:00:05;14.18;;;2.88;;
76023;SDS011;64719;52.124;6.226;2023-03-30T12:02:47;14.00;;;2.72;;
76023;SDS011;64719;52.124;6.226;2023-03-30T12:05:20;8.50;;;2.50;;
76023;SDS011;64719;52.124;6.226;2023-03-30T12:07:57;13.43;;;2.70;;
76023;SDS011;64719;52.124;6.226;2023-03-30T12:10:32;11.30;;;2.08;;
76023;SDS011;64719;52.124;6.226;2023-03-30T12:13:04;11.95;;;3.15;;
76023;SDS011;64719;52.124;6.226;2023-03-30T12:15:33;11.98;;;2.15;;
76023;SDS011;64719;52.124;6.226;2023-03-30T12:18:13;10.27;;;2.05;;
76023;SDS011;64719;52.124;6.226;2023-03-30T12:20:49;14.02;;;2.67;;
76023;SDS011;64719;52.124;6.226;2023-03-30T12:23:22;9.85;;;2.08;;
76023;SDS011;64719;52.124;6.226;2023-03-30T12:28:54;12.43;;;1.83;;
76023;SDS011;64719;52.124;6.226;2023-03-30T12:31:22;10.32;;;2.83;;
76023;SDS011;64719;52.124;6.226;2023-03-30T12:34:10;10.35;;;2.05;;
76023;SDS011;64719;52.124;6.226;2023-03-30T12:36:37;11.77;;;2.22;;
76023;SDS011;64719;52.124;6.226;2023-03-30T12:39:06;10.50;;;2.45;;
76023;SDS011;64719;52.124;6.226;2023-03-30T12:41:40;12.05;;;2.40;;
76023;SDS011;64719;52.124;6.226;2023-03-30T12:44:33;15.43;;;2.80;;
76023;SDS011;64719;52.124;6.226;2023-03-30T12:47:16;10.02;;;1.88;;
76023;SDS011;64719;52.124;6.226;2023-03-30T12:50:18;11.77;;;2.35;;
76023;SDS011;64719;52.124;6.226;2023-03-30T12:52:58;16.70;;;2.72;;
76023;SDS011;64719;52.124;6.226;2023-03-30T12:55:42;11.43;;;2.20;;
76023;SDS011;64719;52.124;6.226;2023-03-30T13:01:09;10.60;;;2.47;;
76023;SDS011;64719;52.124;6.226;2023-03-30T13:03:45;11.95;;;2.72;;
76023;SDS011;64719;52.124;6.226;2023-03-30T13:06:20;8.32;;;2.70;;
76023;SDS011;64719;52.124;6.226;2023-03-30T13:08:52;11.82;;;2.15;;
76023;SDS011;64719;52.124;6.226;2023-03-30T13:11:20;8.43;;;2.08;;
76023;SDS011;64719;52.124;6.226;2023-03-30T13:13:49;12.43;;;2.42;;
76023;SDS011;64719;52.124;6.226;2023-03-30T13:19:39;12.32;;;2.60;;
76023;SDS011;64719;52.124;6.226;2023-03-30T13:22:25;7.82;;;1.90;;
76023;SDS011;64719;52.124;6.226;2023-03-30T13:24:57;10.20;;;2.65;;
76023;SDS011;64719;52.124;6.226;2023-03-30T13:27:27;13.07;;;2.20;;
76023;SDS011;64719;52.124;6.226;2023-03-30T13:29:58;10.88;;;2.70;;
76023;SDS011;64719;52.124;6.226;2023-03-30T13:32:32;12.38;;;2.33;;
76023;SDS011;64719;52.124;6.226;2023-03-30T13:35:14;12.05;;;3.08;;
76023;SDS011;64719;52.124;6.226;2023-03-30T13:37:57;8.98;;;1.98;;
76023;SDS011;64719;52.124;6.226;2023-03-30T13:40:34;9.35;;;2.00;;
76023;SDS011;64719;52.124;6.226;2023-03-30T13:43:08;8.20;;;1.92;;
76023;SDS011;64719;52.124;6.226;2023-03-30T13:45:45;12.18;;;2.45;;
76023;SDS011;64719;52.124;6.226;2023-03-30T13:48:19;14.02;;;2.78;;
76023;SDS011;64719;52.124;6.226;2023-03-30T13:53:27;7.88;;;2.05;;
76023;SDS011;64719;52.124;6.226;2023-03-30T13:55:56;14.57;;;2.88;;
76023;SDS011;64719;52.124;6.226;2023-03-30T13:58:24;12.52;;;2.92;;
76023;SDS011;64719;52.124;6.226;2023-03-30T14:00:55;12.07;;;2.45;;
76023;SDS011;64719;52.124;6.226;2023-03-30T14:03:29;10.15;;;2.40;;
76023;SDS011;64719;52.124;6.226;2023-03-30T14:05:59;9.82;;;2.15;;
76023;SDS011;64719;52.124;6.226;2023-03-30T14:08:29;15.70;;;2.92;;
76023;SDS011;64719;52.124;6.226;2023-03-30T14:10:59;10.98;;;2.50;;
76023;SDS011;64719;52.124;6.226;2023-03-30T14:13:28;12.45;;;2.47;;
76023;SDS011;64719;52.124;6.226;2023-03-30T14:15:55;12.02;;;2.72;;
76023;SDS011;64719;52.124;6.226;2023-03-30T14:18:23;10.80;;;2.33;;
76023;SDS011;64719;52.124;6.226;2023-03-30T14:20:51;15.23;;;3.33;;
76023;SDS011;64719;52.124;6.226;2023-03-30T14:23:24;12.13;;;2.70;;
76023;SDS011;64719;52.124;6.226;2023-03-30T14:25:59;14.98;;;3.28;;
76023;SDS011;64719;52.124;6.226;2023-03-30T14:28:28;11.27;;;2.25;;
76023;SDS011;64719;52.124;6.226;2023-03-30T14:30:58;13.80;;;3.38;;
76023;SDS011;64719;52.124;6.226;2023-03-30T14:33:28;13.95;;;2.47;;
76023;SDS011;64719;52.124;6.226;2023-03-30T14:35:57;9.45;;;2.50;;
76023;SDS011;64719;52.124;6.226;2023-03-30T14:38:25;14.02;;;2.00;;
76023;SDS011;64719;52.124;6.226;2023-03-30T14:40:55;10.20;;;2.20;;
76023;SDS011;64719;52.124;6.226;2023-03-30T14:43:23;8.63;;;2.15;;
76023;SDS011;64719;52.124;6.226;2023-03-30T14:45:54;9.38;;;2.25;;
76023;SDS011;64719;52.124;6.226;2023-03-30T14:48:24;12.40;;;2.25;;
76023;SDS011;64719;52.124;6.226;2023-03-30T14:50:55;11.05;;;2.60;;
76023;SDS011;64719;52.124;6.226;2023-03-30T14:53:22;9.75;;;1.88;;
76023;SDS011;64719;52.124;6.226;2023-03-30T14:55:51;11.85;;;2.05;;
76023;SDS011;64719;52.124;6.226;2023-03-30T14:58:21;15.27;;;2.40;;
76023;SDS011;64719;52.124;6.226;2023-03-30T15:00:51;12.27;;;2.58;;
76023;SDS011;64719;52.124;6.226;2023-03-30T15:03:22;10.15;;;1.75;;
76023;SDS011;64719;52.124;6.226;2023-03-30T15:05:51;7.05;;;1.60;;
76023;SDS011;64719;52.124;6.226;2023-03-30T15:08:19;6.75;;;1.90;;
76023;SDS011;64719;52.124;6.226;2023-03-30T15:10:48;11.20;;;1.77;;
76023;SDS011;64719;52.124;6.226;2023-03-30T15:13:20;11.57;;;2.05;;
76023;SDS011;64719;52.124;6.226;2023-03-30T15:15:52;9.05;;;2.13;;
76023;SDS011;64719;52.124;6.226;2023-03-30T15:18:21;13.10;;;2.10;;
76023;SDS011;64719;52.124;6.226;2023-03-30T15:20:51;9.43;;;1.67;;
76023;SDS011;64719;52.124;6.226;2023-03-30T15:23:18;6.63;;;1.60;;
76023;SDS011;64719;52.124;6.226;2023-03-30T15:25:45;7.70;;;1.60;;
76023;SDS011;64719;52.124;6.226;2023-03-30T15:28:13;10.63;;;2.15;;
76023;SDS011;64719;52.124;6.226;2023-03-30T15:30:43;11.50;;;2.00;;
76023;SDS011;64719;52.124;6.226;2023-03-30T15:33:19;9.73;;;1.88;;
76023;SDS011;64719;52.124;6.226;2023-03-30T15:35:48;10.50;;;1.85;;
76023;SDS011;64719;52.124;6.226;2023-03-30T15:38:17;6.57;;;1.63;;
76023;SDS011;64719;52.124;6.226;2023-03-30T15:40:44;9.82;;;1.98;;